sensor_id;sensor_type;location;lat;lon;timestamp;pressure;altitude;pressure_sealevel;temperature
65290;BMP180;51893;59.754;10.110;2023-04-01T00:01:00;101335.00;;;-2.40
65290;BMP180;51893;59.754;10.110;2023-04-01T00:03:28;101336.60;;;-2.40
65290;BMP180;51893;59.754;10.110;2023-04-01T00:05:58;101335.20;;;-2.40
65290;BMP180;51893;59.754;10.110;2023-04-01T00:08:26;101338.40;;;-2.38
65290;BMP180;51893;59.754;10.110;2023-04-01T00:10:54;101341.40;;;-2.40
65290;BMP180;51893;59.754;10.110;2023-04-01T00:13:23;101349.00;;;-2.40
65290;BMP180;51893;59.754;10.110;2023-04-01T00:15:49;101345.40;;;-2.40
65290;BMP180;51893;59.754;10.110;2023-04-01T00:18:16;101344.60;;;-2.40
65290;BMP180;51893;59.754;10.110;2023-04-01T00:20:50;101350.20;;;-2.44
65290;BMP180;51893;59.754;10.110;2023-04-01T00:23:19;101352.60;;;-2.40
65290;BMP180;51893;59.754;10.110;2023-04-01T00:25:48;101354.80;;;-2.50
65290;BMP180;51893;59.754;10.110;2023-04-01T00:28:19;101356.80;;;-2.50
65290;BMP180;51893;59.754;10.110;2023-04-01T00:30:48;101359.00;;;-2.50
65290;BMP180;51893;59.754;10.110;2023-04-01T00:33:15;101358.00;;;-2.56
65290;BMP180;51893;59.754;10.110;2023-04-01T00:35:47;101353.00;;;-2.54
65290;BMP180;51893;59.754;10.110;2023-04-01T00:38:14;101359.00;;;-2.50
65290;BMP180;51893;59.754;10.110;2023-04-01T00:40:46;101362.60;;;-2.52
65290;BMP180;51893;59.754;10.110;2023-04-01T00:43:18;101362.80;;;-2.60
65290;BMP180;51893;59.754;10.110;2023-04-01T00:45:48;101361.20;;;-2.70
65290;BMP180;51893;59.754;10.110;2023-04-01T00:48:42;101363.80;;;-2.62
65290;BMP180;51893;59.754;10.110;2023-04-01T00:51:16;101366.00;;;-2.60
65290;BMP180;51893;59.754;10.110;2023-04-01T00:53:48;101372.00;;;-2.70
65290;BMP180;51893;59.754;10.110;2023-04-01T00:56:22;101375.80;;;-2.70
65290;BMP180;51893;59.754;10.110;2023-04-01T00:59:23;101384.80;;;-2.80
65290;BMP180;51893;59.754;10.110;2023-04-01T01:01:51;101379.00;;;-3.00
65290;BMP180;51893;59.754;10.110;2023-04-01T01:04:33;101384.40;;;-3.00
65290;BMP180;51893;59.754;10.110;2023-04-01T01:12:56;101384.60;;;-3.00
65290;BMP180;51893;59.754;10.110;2023-04-01T01:16:12;101386.60;;;-3.00
65290;BMP180;51893;59.754;10.110;2023-04-01T01:19:09;101387.00;;;-3.00
65290;BMP180;51893;59.754;10.110;2023-04-01T01:24:57;101400.00;;;-3.00
65290;BMP180;51893;59.754;10.110;2023-04-01T01:27:36;101385.80;;;-2.96
65290;BMP180;51893;59.754;10.110;2023-04-01T01:36:04;101401.60;;;-3.00
65290;BMP180;51893;59.754;10.110;2023-04-01T01:38:34;101406.00;;;-3.00
65290;BMP180;51893;59.754;10.110;2023-04-01T01:41:05;101406.80;;;-3.00
65290;BMP180;51893;59.754;10.110;2023-04-01T01:43:40;101408.60;;;-2.90
65290;BMP180;51893;59.754;10.110;2023-04-01T01:46:14;101413.80;;;-2.90
65290;BMP180;51893;59.754;10.110;2023-04-01T01:48:43;101409.40;;;-2.90
65290;BMP180;51893;59.754;10.110;2023-04-01T01:51:11;101413.40;;;-2.90
65290;BMP180;51893;59.754;10.110;2023-04-01T01:53:39;101419.00;;;-2.80
65290;BMP180;51893;59.754;10.110;2023-04-01T01:56:06;101419.20;;;-2.78
65290;BMP180;51893;59.754;10.110;2023-04-01T01:58:43;101422.60;;;-2.80
65290;BMP180;51893;59.754;10.110;2023-04-01T02:01:17;101423.20;;;-2.90
65290;BMP180;51893;59.754;10.110;2023-04-01T02:03:48;101426.80;;;-3.00
65290;BMP180;51893;59.754;10.110;2023-04-01T02:06:19;101434.00;;;-3.02
65290;BMP180;51893;59.754;10.110;2023-04-01T02:09:02;101426.60;;;-3.02
65290;BMP180;51893;59.754;10.110;2023-04-01T02:11:40;101435.80;;;-3.10
65290;BMP180;51893;59.754;10.110;2023-04-01T02:14:18;101436.80;;;-3.18
65290;BMP180;51893;59.754;10.110;2023-04-01T02:19:17;101440.80;;;-3.18
65290;BMP180;51893;59.754;10.110;2023-04-01T02:21:56;101440.00;;;-3.20
65290;BMP180;51893;59.754;10.110;2023-04-01T02:24:31;101442.60;;;-3.20
65290;BMP180;51893;59.754;10.110;2023-04-01T02:27:03;101446.80;;;-3.30
65290;BMP180;51893;59.754;10.110;2023-04-01T02:29:31;101443.40;;;-3.30
65290;BMP180;51893;59.754;10.110;2023-04-01T02:31:59;101457.80;;;-3.30
65290;BMP180;51893;59.754;10.110;2023-04-01T02:34:27;101452.60;;;-3.40
65290;BMP180;51893;59.754;10.110;2023-04-01T02:36:57;101456.20;;;-3.50
65290;BMP180;51893;59.754;10.110;2023-04-01T02:39:24;101463.00;;;-3.50
65290;BMP180;51893;59.754;10.110;2023-04-01T02:41:53;101463.80;;;-3.50
65290;BMP180;51893;59.754;10.110;2023-04-01T02:44:20;101462.20;;;-3.50
65290;BMP180;51893;59.754;10.110;2023-04-01T02:46:48;101467.80;;;-3.50
65290;BMP180;51893;59.754;10.110;2023-04-01T02:49:15;101472.00;;;-3.54
65290;BMP180;51893;59.754;10.110;2023-04-01T02:51:41;101475.20;;;-3.60
65290;BMP180;51893;59.754;10.110;2023-04-01T02:54:08;101481.40;;;-3.58
65290;BMP180;51893;59.754;10.110;2023-04-01T02:56:35;101478.60;;;-3.52
65290;BMP180;51893;59.754;10.110;2023-04-01T02:59:02;101482.20;;;-3.58
65290;BMP180;51893;59.754;10.110;2023-04-01T03:01:30;101480.60;;;-3.60
65290;BMP180;51893;59.754;10.110;2023-04-01T03:03:57;101483.40;;;-3.60
65290;BMP180;51893;59.754;10.110;2023-04-01T03:06:24;101485.80;;;-3.60
65290;BMP180;51893;59.754;10.110;2023-04-01T03:08:50;101489.80;;;-3.60
65290;BMP180;51893;59.754;10.110;2023-04-01T03:11:17;101494.80;;;-3.58
65290;BMP180;51893;59.754;10.110;2023-04-01T03:13:43;101497.00;;;-3.60
65290;BMP180;51893;59.754;10.110;2023-04-01T03:16:10;101496.20;;;-3.60
65290;BMP180;51893;59.754;10.110;2023-04-01T03:18:38;101498.80;;;-3.60
65290;BMP180;51893;59.754;10.110;2023-04-01T03:21:17;101501.60;;;-3.50
65290;BMP180;51893;59.754;10.110;2023-04-01T03:23:44;101507.60;;;-3.50
65290;BMP180;51893;59.754;10.110;2023-04-01T03:26:12;101507.80;;;-3.50
65290;BMP180;51893;59.754;10.110;2023-04-01T03:28:41;101509.00;;;-3.50
65290;BMP180;51893;59.754;10.110;2023-04-01T03:31:08;101513.00;;;-3.46
65290;BMP180;51893;59.754;10.110;2023-04-01T03:33:35;101515.20;;;-3.50
65290;BMP180;51893;59.754;10.110;2023-04-01T03:36:03;101519.60;;;-3.50
65290;BMP180;51893;59.754;10.110;2023-04-01T03:38:35;101523.20;;;-3.50
65290;BMP180;51893;59.754;10.110;2023-04-01T03:41:02;101523.00;;;-3.50
65290;BMP180;51893;59.754;10.110;2023-04-01T03:43:33;101533.20;;;-3.50
65290;BMP180;51893;59.754;10.110;2023-04-01T03:46:00;101533.20;;;-3.50
65290;BMP180;51893;59.754;10.110;2023-04-01T03:48:28;101535.20;;;-3.56
65290;BMP180;51893;59.754;10.110;2023-04-01T03:50:54;101544.80;;;-3.60
65290;BMP180;51893;59.754;10.110;2023-04-01T03:53:22;101540.60;;;-3.60
65290;BMP180;51893;59.754;10.110;2023-04-01T03:55:49;101546.00;;;-3.70
65290;BMP180;51893;59.754;10.110;2023-04-01T03:58:20;101547.20;;;-3.70
65290;BMP180;51893;59.754;10.110;2023-04-01T04:00:47;101548.40;;;-3.70
65290;BMP180;51893;59.754;10.110;2023-04-01T04:03:14;101547.80;;;-3.70
65290;BMP180;51893;59.754;10.110;2023-04-01T04:05:48;101544.60;;;-3.70
65290;BMP180;51893;59.754;10.110;2023-04-01T04:08:17;101544.20;;;-3.70
65290;BMP180;51893;59.754;10.110;2023-04-01T04:10:43;101550.80;;;-3.70
65290;BMP180;51893;59.754;10.110;2023-04-01T04:13:11;101555.80;;;-3.78
65290;BMP180;51893;59.754;10.110;2023-04-01T04:15:38;101557.40;;;-3.82
65290;BMP180;51893;59.754;10.110;2023-04-01T04:18:05;101561.20;;;-3.86
65290;BMP180;51893;59.754;10.110;2023-04-01T04:20:32;101567.60;;;-3.90
65290;BMP180;51893;59.754;10.110;2023-04-01T04:23:02;101567.40;;;-3.90
65290;BMP180;51893;59.754;10.110;2023-04-01T04:25:28;101575.00;;;-3.90
65290;BMP180;51893;59.754;10.110;2023-04-01T04:27:55;101568.20;;;-3.84
65290;BMP180;51893;59.754;10.110;2023-04-01T04:30:23;101573.80;;;-3.80
65290;BMP180;51893;59.754;10.110;2023-04-01T04:32:49;101578.00;;;-3.80
65290;BMP180;51893;59.754;10.110;2023-04-01T04:35:16;101577.00;;;-3.80
65290;BMP180;51893;59.754;10.110;2023-04-01T04:37:44;101582.00;;;-3.82
65290;BMP180;51893;59.754;10.110;2023-04-01T04:40:12;101578.40;;;-3.82
65290;BMP180;51893;59.754;10.110;2023-04-01T04:42:38;101584.80;;;-3.84
65290;BMP180;51893;59.754;10.110;2023-04-01T04:45:07;101589.40;;;-3.80
65290;BMP180;51893;59.754;10.110;2023-04-01T04:47:33;101587.40;;;-3.80
65290;BMP180;51893;59.754;10.110;2023-04-01T04:50:01;101593.60;;;-3.80
65290;BMP180;51893;59.754;10.110;2023-04-01T04:52:28;101596.60;;;-3.90
65290;BMP180;51893;59.754;10.110;2023-04-01T04:54:58;101602.40;;;-3.90
65290;BMP180;51893;59.754;10.110;2023-04-01T04:57:24;101608.20;;;-3.90
65290;BMP180;51893;59.754;10.110;2023-04-01T04:59:51;101610.00;;;-3.90
65290;BMP180;51893;59.754;10.110;2023-04-01T05:02:19;101614.40;;;-4.00
65290;BMP180;51893;59.754;10.110;2023-04-01T05:04:46;101616.40;;;-4.10
65290;BMP180;51893;59.754;10.110;2023-04-01T05:07:14;101617.40;;;-4.10
65290;BMP180;51893;59.754;10.110;2023-04-01T05:09:40;101621.40;;;-4.10
65290;BMP180;51893;59.754;10.110;2023-04-01T05:12:08;101623.60;;;-4.00
65290;BMP180;51893;59.754;10.110;2023-04-01T05:14:36;101625.60;;;-4.00
65290;BMP180;51893;59.754;10.110;2023-04-01T05:17:03;101634.60;;;-3.94
65290;BMP180;51893;59.754;10.110;2023-04-01T05:19:29;101635.60;;;-3.90
65290;BMP180;51893;59.754;10.110;2023-04-01T05:21:56;101640.40;;;-3.90
65290;BMP180;51893;59.754;10.110;2023-04-01T05:24:23;101643.80;;;-3.80
65290;BMP180;51893;59.754;10.110;2023-04-01T05:26:49;101647.60;;;-3.72
65290;BMP180;51893;59.754;10.110;2023-04-01T05:29:17;101642.00;;;-3.70
65290;BMP180;51893;59.754;10.110;2023-04-01T05:31:46;101650.80;;;-3.70
65290;BMP180;51893;59.754;10.110;2023-04-01T05:34:13;101656.00;;;-3.72
65290;BMP180;51893;59.754;10.110;2023-04-01T05:36:44;101660.80;;;-3.70
65290;BMP180;51893;59.754;10.110;2023-04-01T05:39:12;101658.80;;;-3.70
65290;BMP180;51893;59.754;10.110;2023-04-01T05:41:38;101654.80;;;-3.70
65290;BMP180;51893;59.754;10.110;2023-04-01T05:44:06;101661.80;;;-3.70
65290;BMP180;51893;59.754;10.110;2023-04-01T05:46:33;101663.20;;;-3.70
65290;BMP180;51893;59.754;10.110;2023-04-01T05:49:01;101668.00;;;-3.80
65290;BMP180;51893;59.754;10.110;2023-04-01T05:51:31;101662.60;;;-3.80
65290;BMP180;51893;59.754;10.110;2023-04-01T05:53:58;101668.00;;;-3.70
65290;BMP180;51893;59.754;10.110;2023-04-01T05:56:24;101666.40;;;-3.70
65290;BMP180;51893;59.754;10.110;2023-04-01T05:58:53;101665.60;;;-3.70
65290;BMP180;51893;59.754;10.110;2023-04-01T06:01:21;101665.60;;;-3.60
65290;BMP180;51893;59.754;10.110;2023-04-01T06:03:49;101669.20;;;-3.60
65290;BMP180;51893;59.754;10.110;2023-04-01T06:06:27;101668.80;;;-3.50
65290;BMP180;51893;59.754;10.110;2023-04-01T06:09:07;101668.20;;;-3.42
65290;BMP180;51893;59.754;10.110;2023-04-01T06:42:30;101709.00;;;-3.14
65290;BMP180;51893;59.754;10.110;2023-04-01T06:45:32;101708.00;;;-3.18
65290;BMP180;51893;59.754;10.110;2023-04-01T06:48:32;101705.00;;;-3.10
65290;BMP180;51893;59.754;10.110;2023-04-01T06:54:31;101713.80;;;-2.94
65290;BMP180;51893;59.754;10.110;2023-04-01T06:57:05;101716.80;;;-2.90
65290;BMP180;51893;59.754;10.110;2023-04-01T06:59:37;101717.00;;;-2.94
65290;BMP180;51893;59.754;10.110;2023-04-01T07:02:37;101722.80;;;-2.94
65290;BMP180;51893;59.754;10.110;2023-04-01T07:05:08;101724.40;;;-3.00
65290;BMP180;51893;59.754;10.110;2023-04-01T07:07:43;101724.80;;;-3.00
65290;BMP180;51893;59.754;10.110;2023-04-01T07:10:20;101726.60;;;-2.90
65290;BMP180;51893;59.754;10.110;2023-04-01T07:12:56;101733.40;;;-2.80
65290;BMP180;51893;59.754;10.110;2023-04-01T07:15:36;101736.00;;;-2.70
65290;BMP180;51893;59.754;10.110;2023-04-01T07:18:23;101740.60;;;-2.60
65290;BMP180;51893;59.754;10.110;2023-04-01T07:20:55;101741.00;;;-2.50
65290;BMP180;51893;59.754;10.110;2023-04-01T07:23:32;101741.00;;;-2.40
65290;BMP180;51893;59.754;10.110;2023-04-01T07:26:15;101742.20;;;-2.30
65290;BMP180;51893;59.754;10.110;2023-04-01T07:28:43;101751.00;;;-2.20
65290;BMP180;51893;59.754;10.110;2023-04-01T07:34:18;101751.20;;;-1.90
65290;BMP180;51893;59.754;10.110;2023-04-01T07:37:03;101757.20;;;-1.80
65290;BMP180;51893;59.754;10.110;2023-04-01T07:46:12;101762.60;;;-1.58
65290;BMP180;51893;59.754;10.110;2023-04-01T07:54:57;101767.60;;;-1.30
65290;BMP180;51893;59.754;10.110;2023-04-01T08:09:40;101775.80;;;-0.90
65290;BMP180;51893;59.754;10.110;2023-04-01T08:13:10;101779.80;;;-0.72
65290;BMP180;51893;59.754;10.110;2023-04-01T08:19:09;101786.20;;;-0.40
65290;BMP180;51893;59.754;10.110;2023-04-01T08:21:47;101786.80;;;-0.40
65290;BMP180;51893;59.754;10.110;2023-04-01T08:24:44;101787.80;;;-0.38
65290;BMP180;51893;59.754;10.110;2023-04-01T08:27:37;101792.80;;;-0.24
65290;BMP180;51893;59.754;10.110;2023-04-01T08:32:59;101795.80;;;0.02
65290;BMP180;51893;59.754;10.110;2023-04-01T08:35:38;101795.00;;;0.10
65290;BMP180;51893;59.754;10.110;2023-04-01T08:38:26;101793.80;;;0.22
65290;BMP180;51893;59.754;10.110;2023-04-01T08:41:40;101797.80;;;0.38
65290;BMP180;51893;59.754;10.110;2023-04-01T08:47:28;101801.60;;;0.66
65290;BMP180;51893;59.754;10.110;2023-04-01T08:50:31;101800.00;;;0.80
65290;BMP180;51893;59.754;10.110;2023-04-01T08:56:18;101804.40;;;1.00
65290;BMP180;51893;59.754;10.110;2023-04-01T09:02:39;101811.00;;;1.10
65290;BMP180;51893;59.754;10.110;2023-04-01T09:15:34;101813.60;;;1.60
65290;BMP180;51893;59.754;10.110;2023-04-01T09:27:40;101819.00;;;2.10
65290;BMP180;51893;59.754;10.110;2023-04-01T09:36:33;101820.00;;;2.60
65290;BMP180;51893;59.754;10.110;2023-04-01T09:44:59;101825.80;;;2.98
65290;BMP180;51893;59.754;10.110;2023-04-01T09:47:57;101826.40;;;3.10
65290;BMP180;51893;59.754;10.110;2023-04-01T10:00:00;101825.20;;;3.60
65290;BMP180;51893;59.754;10.110;2023-04-01T10:17:28;101830.60;;;4.26
65290;BMP180;51893;59.754;10.110;2023-04-01T10:23:54;101830.00;;;4.40
65290;BMP180;51893;59.754;10.110;2023-04-01T10:39:01;101827.80;;;4.90
65290;BMP180;51893;59.754;10.110;2023-04-01T10:53:49;101842.20;;;5.00
65290;BMP180;51893;59.754;10.110;2023-04-01T10:56:36;101843.20;;;5.10
65290;BMP180;51893;59.754;10.110;2023-04-01T11:12:13;101847.00;;;5.50
65290;BMP180;51893;59.754;10.110;2023-04-01T11:21:05;101848.60;;;5.90
65290;BMP180;51893;59.754;10.110;2023-04-01T11:26:52;101863.60;;;6.10
65290;BMP180;51893;59.754;10.110;2023-04-01T11:33:05;101851.60;;;6.40
65290;BMP180;51893;59.754;10.110;2023-04-01T11:44:26;101857.00;;;6.72
65290;BMP180;51893;59.754;10.110;2023-04-01T11:53:05;101859.00;;;7.10
65290;BMP180;51893;59.754;10.110;2023-04-01T11:58:58;101860.60;;;7.30
65290;BMP180;51893;59.754;10.110;2023-04-01T12:05:18;101867.80;;;7.20
65290;BMP180;51893;59.754;10.110;2023-04-01T12:08:00;101869.80;;;7.30
65290;BMP180;51893;59.754;10.110;2023-04-01T12:11:15;101865.80;;;7.30
65290;BMP180;51893;59.754;10.110;2023-04-01T12:14:03;101870.40;;;7.42
65290;BMP180;51893;59.754;10.110;2023-04-01T12:19:44;101876.80;;;7.60
65290;BMP180;51893;59.754;10.110;2023-04-01T12:22:41;101879.00;;;7.56
65290;BMP180;51893;59.754;10.110;2023-04-01T12:28:25;101880.40;;;7.50
65290;BMP180;51893;59.754;10.110;2023-04-01T12:31:53;101882.80;;;7.60
65290;BMP180;51893;59.754;10.110;2023-04-01T12:34:51;101883.00;;;7.60
65290;BMP180;51893;59.754;10.110;2023-04-01T12:37:40;101879.80;;;7.80
65290;BMP180;51893;59.754;10.110;2023-04-01T12:44:10;101883.60;;;7.98
65290;BMP180;51893;59.754;10.110;2023-04-01T12:46:57;101879.80;;;8.14
65290;BMP180;51893;59.754;10.110;2023-04-01T12:49:55;101886.80;;;8.30
65290;BMP180;51893;59.754;10.110;2023-04-01T12:52:57;101883.00;;;8.44
65290;BMP180;51893;59.754;10.110;2023-04-01T12:55:45;101885.40;;;8.60
65290;BMP180;51893;59.754;10.110;2023-04-01T12:58:45;101887.00;;;8.84
65290;BMP180;51893;59.754;10.110;2023-04-01T13:01:30;101893.80;;;9.12
65290;BMP180;51893;59.754;10.110;2023-04-01T13:13:17;101893.80;;;9.92
65290;BMP180;51893;59.754;10.110;2023-04-01T13:22:07;101898.40;;;10.30
65290;BMP180;51893;59.754;10.110;2023-04-01T13:25:06;101901.20;;;10.40
65290;BMP180;51893;59.754;10.110;2023-04-01T13:27:43;101904.20;;;10.40
65290;BMP180;51893;59.754;10.110;2023-04-01T13:30:30;101900.80;;;10.50
65290;BMP180;51893;59.754;10.110;2023-04-01T13:33:44;101901.00;;;10.52
65290;BMP180;51893;59.754;10.110;2023-04-01T13:40:14;101902.20;;;10.50
65290;BMP180;51893;59.754;10.110;2023-04-01T13:42:53;101901.20;;;10.50
65290;BMP180;51893;59.754;10.110;2023-04-01T13:51:57;101914.20;;;10.40
65290;BMP180;51893;59.754;10.110;2023-04-01T14:07:08;101917.20;;;10.36
65290;BMP180;51893;59.754;10.110;2023-04-01T14:10:22;101921.60;;;10.40
65290;BMP180;51893;59.754;10.110;2023-04-01T14:13:21;101922.80;;;10.20
65290;BMP180;51893;59.754;10.110;2023-04-01T14:18:53;101922.60;;;10.00
65290;BMP180;51893;59.754;10.110;2023-04-01T14:21:37;101915.20;;;9.84
65290;BMP180;51893;59.754;10.110;2023-04-01T14:27:51;101926.60;;;9.44
65290;BMP180;51893;59.754;10.110;2023-04-01T14:39:24;101937.80;;;9.10
65290;BMP180;51893;59.754;10.110;2023-04-01T14:46:13;101936.00;;;9.00
65290;BMP180;51893;59.754;10.110;2023-04-01T14:49:01;101936.40;;;9.00
65290;BMP180;51893;59.754;10.110;2023-04-01T14:51:38;101933.00;;;8.96
65290;BMP180;51893;59.754;10.110;2023-04-01T14:56:46;101939.00;;;8.98
65290;BMP180;51893;59.754;10.110;2023-04-01T15:05:56;101943.40;;;8.90
65290;BMP180;51893;59.754;10.110;2023-04-01T15:08:41;101943.60;;;9.00
65290;BMP180;51893;59.754;10.110;2023-04-01T15:11:24;101942.80;;;9.10
65290;BMP180;51893;59.754;10.110;2023-04-01T15:16:49;101943.80;;;9.28
65290;BMP180;51893;59.754;10.110;2023-04-01T15:28:39;101945.40;;;10.00
65290;BMP180;51893;59.754;10.110;2023-04-01T15:37:45;101954.20;;;10.40
65290;BMP180;51893;59.754;10.110;2023-04-01T15:40:29;101966.00;;;10.40
65290;BMP180;51893;59.754;10.110;2023-04-01T15:45:51;101965.20;;;10.60
65290;BMP180;51893;59.754;10.110;2023-04-01T15:48:33;101968.80;;;10.50
65290;BMP180;51893;59.754;10.110;2023-04-01T15:51:25;101975.40;;;10.20
65290;BMP180;51893;59.754;10.110;2023-04-01T16:14:36;101990.00;;;10.24
65290;BMP180;51893;59.754;10.110;2023-04-01T16:23:47;101991.20;;;10.10
65290;BMP180;51893;59.754;10.110;2023-04-01T16:29:28;101997.40;;;10.42
65290;BMP180;51893;59.754;10.110;2023-04-01T16:35:36;102006.00;;;10.40
65290;BMP180;51893;59.754;10.110;2023-04-01T16:38:26;102002.40;;;10.40
65290;BMP180;51893;59.754;10.110;2023-04-01T16:46:45;102005.00;;;10.40
65290;BMP180;51893;59.754;10.110;2023-04-01T16:49:42;102007.20;;;10.30
65290;BMP180;51893;59.754;10.110;2023-04-01T16:52:31;102007.40;;;10.30
65290;BMP180;51893;59.754;10.110;2023-04-01T16:55:12;102010.20;;;10.30
65290;BMP180;51893;59.754;10.110;2023-04-01T16:57:50;102006.00;;;10.32
65290;BMP180;51893;59.754;10.110;2023-04-01T17:00:44;102012.60;;;10.30
65290;BMP180;51893;59.754;10.110;2023-04-01T17:03:34;102020.20;;;10.10
65290;BMP180;51893;59.754;10.110;2023-04-01T17:12:14;102030.00;;;9.20
65290;BMP180;51893;59.754;10.110;2023-04-01T17:15:11;102031.00;;;9.00
65290;BMP180;51893;59.754;10.110;2023-04-01T17:18:25;102034.80;;;8.70
65290;BMP180;51893;59.754;10.110;2023-04-01T17:24:26;102040.40;;;8.10
65290;BMP180;51893;59.754;10.110;2023-04-01T17:27:37;102038.80;;;7.80
65290;BMP180;51893;59.754;10.110;2023-04-01T17:30:24;102038.60;;;7.50
65290;BMP180;51893;59.754;10.110;2023-04-01T17:36:48;102043.60;;;6.90
65290;BMP180;51893;59.754;10.110;2023-04-01T17:39:37;102045.20;;;6.60
65290;BMP180;51893;59.754;10.110;2023-04-01T17:48:34;102049.20;;;6.10
65290;BMP180;51893;59.754;10.110;2023-04-01T17:51:43;102051.20;;;5.90
65290;BMP180;51893;59.754;10.110;2023-04-01T17:54:53;102053.80;;;5.62
65290;BMP180;51893;59.754;10.110;2023-04-01T17:57:46;102057.60;;;5.40
65290;BMP180;51893;59.754;10.110;2023-04-01T18:00:33;102053.60;;;5.30
65290;BMP180;51893;59.754;10.110;2023-04-01T18:03:54;102057.00;;;5.10
65290;BMP180;51893;59.754;10.110;2023-04-01T18:12:54;102054.20;;;4.60
65290;BMP180;51893;59.754;10.110;2023-04-01T18:15:53;102058.00;;;4.50
65290;BMP180;51893;59.754;10.110;2023-04-01T18:19:02;102062.60;;;4.38
65290;BMP180;51893;59.754;10.110;2023-04-01T18:21:41;102070.60;;;4.26
65290;BMP180;51893;59.754;10.110;2023-04-01T18:34:06;102077.20;;;3.86
65290;BMP180;51893;59.754;10.110;2023-04-01T18:36:55;102078.20;;;3.78
65290;BMP180;51893;59.754;10.110;2023-04-01T18:39:48;102078.40;;;3.62
65290;BMP180;51893;59.754;10.110;2023-04-01T18:51:33;102098.80;;;3.50
65290;BMP180;51893;59.754;10.110;2023-04-01T18:54:31;102104.40;;;3.40
65290;BMP180;51893;59.754;10.110;2023-04-01T18:57:13;102111.00;;;3.24
65290;BMP180;51893;59.754;10.110;2023-04-01T18:59:52;102119.80;;;3.16
65290;BMP180;51893;59.754;10.110;2023-04-01T19:02:45;102118.80;;;3.04
65290;BMP180;51893;59.754;10.110;2023-04-01T19:05:35;102115.80;;;3.00
65290;BMP180;51893;59.754;10.110;2023-04-01T19:08:28;102123.60;;;2.90
65290;BMP180;51893;59.754;10.110;2023-04-01T19:14:17;102134.80;;;2.70
65290;BMP180;51893;59.754;10.110;2023-04-01T19:17:31;102138.20;;;2.70
65290;BMP180;51893;59.754;10.110;2023-04-01T19:23:58;102144.00;;;2.50
65290;BMP180;51893;59.754;10.110;2023-04-01T19:26:45;102153.40;;;2.40
65290;BMP180;51893;59.754;10.110;2023-04-01T19:38:36;102171.20;;;2.20
65290;BMP180;51893;59.754;10.110;2023-04-01T19:41:49;102177.00;;;2.20
65290;BMP180;51893;59.754;10.110;2023-04-01T19:47:15;102187.80;;;2.10
65290;BMP180;51893;59.754;10.110;2023-04-01T19:53:25;102194.00;;;2.00
65290;BMP180;51893;59.754;10.110;2023-04-01T19:56:19;102199.00;;;2.00
65290;BMP180;51893;59.754;10.110;2023-04-01T19:58:58;102206.20;;;1.90
65290;BMP180;51893;59.754;10.110;2023-04-01T20:11:28;102227.60;;;1.80
65290;BMP180;51893;59.754;10.110;2023-04-01T20:14:19;102232.00;;;1.70
65290;BMP180;51893;59.754;10.110;2023-04-01T20:17:21;102238.20;;;1.60
65290;BMP180;51893;59.754;10.110;2023-04-01T20:28:21;102248.40;;;1.40
65290;BMP180;51893;59.754;10.110;2023-04-01T20:31:25;102252.60;;;1.40
65290;BMP180;51893;59.754;10.110;2023-04-01T20:40:14;102262.80;;;1.30
65290;BMP180;51893;59.754;10.110;2023-04-01T20:51:31;102271.80;;;1.20
65290;BMP180;51893;59.754;10.110;2023-04-01T20:54:32;102274.20;;;1.20
65290;BMP180;51893;59.754;10.110;2023-04-01T20:57:45;102284.80;;;1.20
65290;BMP180;51893;59.754;10.110;2023-04-01T21:00:51;102295.60;;;1.10
65290;BMP180;51893;59.754;10.110;2023-04-01T21:03:48;102296.80;;;1.10
65290;BMP180;51893;59.754;10.110;2023-04-01T21:07:04;102302.40;;;1.00
65290;BMP180;51893;59.754;10.110;2023-04-01T21:10:11;102308.80;;;0.96
65290;BMP180;51893;59.754;10.110;2023-04-01T21:13:30;102311.60;;;0.80
65290;BMP180;51893;59.754;10.110;2023-04-01T21:16:31;102314.80;;;0.80
65290;BMP180;51893;59.754;10.110;2023-04-01T21:19:35;102318.20;;;0.76
65290;BMP180;51893;59.754;10.110;2023-04-01T21:25:33;102322.20;;;0.76
65290;BMP180;51893;59.754;10.110;2023-04-01T21:28:29;102328.20;;;0.70
65290;BMP180;51893;59.754;10.110;2023-04-01T21:37:36;102338.20;;;0.50
65290;BMP180;51893;59.754;10.110;2023-04-01T21:46:31;102351.20;;;0.50
65290;BMP180;51893;59.754;10.110;2023-04-01T22:10:45;102393.40;;;0.30
65290;BMP180;51893;59.754;10.110;2023-04-01T22:14:06;102398.40;;;0.30
65290;BMP180;51893;59.754;10.110;2023-04-01T22:16:57;102406.00;;;0.20
65290;BMP180;51893;59.754;10.110;2023-04-01T22:22:22;102417.20;;;0.20
65290;BMP180;51893;59.754;10.110;2023-04-01T22:28:04;102421.00;;;0.20
65290;BMP180;51893;59.754;10.110;2023-04-01T22:30:41;102422.60;;;0.16
65290;BMP180;51893;59.754;10.110;2023-04-01T22:36:11;102433.60;;;0.10
65290;BMP180;51893;59.754;10.110;2023-04-01T22:39:08;102440.20;;;0.00
65290;BMP180;51893;59.754;10.110;2023-04-01T22:50:34;102452.40;;;-0.16
65290;BMP180;51893;59.754;10.110;2023-04-01T22:53:32;102454.80;;;-0.20
65290;BMP180;51893;59.754;10.110;2023-04-01T22:56:11;102460.80;;;-0.30
65290;BMP180;51893;59.754;10.110;2023-04-01T22:58:54;102463.80;;;-0.30
65290;BMP180;51893;59.754;10.110;2023-04-01T23:01:29;102470.40;;;-0.30
65290;BMP180;51893;59.754;10.110;2023-04-01T23:04:03;102467.60;;;-0.30
65290;BMP180;51893;59.754;10.110;2023-04-01T23:06:42;102470.80;;;-0.40
65290;BMP180;51893;59.754;10.110;2023-04-01T23:09:27;102473.20;;;-0.40
65290;BMP180;51893;59.754;10.110;2023-04-01T23:14:49;102487.80;;;-0.50
65290;BMP180;51893;59.754;10.110;2023-04-01T23:26:43;102497.40;;;-0.40
65290;BMP180;51893;59.754;10.110;2023-04-01T23:29:19;102501.80;;;-0.46
65290;BMP180;51893;59.754;10.110;2023-04-01T23:31:59;102504.00;;;-0.50
65290;BMP180;51893;59.754;10.110;2023-04-01T23:34:33;102509.40;;;-0.50
65290;BMP180;51893;59.754;10.110;2023-04-01T23:37:07;102506.40;;;-0.60
65290;BMP180;51893;59.754;10.110;2023-04-01T23:39:40;102517.00;;;-0.62
65290;BMP180;51893;59.754;10.110;2023-04-01T23:44:56;102526.20;;;-0.70
65290;BMP180;51893;59.754;10.110;2023-04-01T23:47:37;102523.20;;;-0.70
65290;BMP180;51893;59.754;10.110;2023-04-01T23:50:25;102528.60;;;-0.70
65290;BMP180;51893;59.754;10.110;2023-04-01T23:53:02;102534.40;;;-0.80